Time,TemperatureF,DewpointF,PressureIn,WindDirection,WindDirectionDegrees,WindSpeedMPH,WindSpeedGustMPH,Humidity,HourlyPrecipIn,Conditions,Clouds,dailyrainin,SolarRadiationWatts/m^2,SoftwareType,DateUTC
2013-03-20 00:14:00,65.6,64.0,29.97,WNW,282,0.0,-999.0,94,-99.99,,,0.00,0,weatherlink.com 1.10,2013-03-20 04:14:00,
2013-03-20 00:29:00,65.1,63.0,29.98,West,281,0.0,-999.0,93,-99.99,,,0.00,0,weatherlink.com 1.10,2013-03-20 04:29:00,
2013-03-20 00:44:00,65.0,63.0,29.98,West,281,0.0,-999.0,94,-99.99,,,0.00,0,weatherlink.com 1.10,2013-03-20 04:44:00,
2013-03-20 00:59:00,64.7,63.0,29.97,West,281,0.0,-999.0,94,-99.99,,,0.00,0,weatherlink.com 1.10,2013-03-20 04:59:00,
2013-03-20 01:14:00,64.5,63.0,29.97,West,281,0.0,-999.0,95,-99.99,,,0.00,0,weatherlink.com 1.10,2013-03-20 05:14:00,
2013-03-20 01:29:00,64.1,63.0,29.96,West,281,0.0,-999.0,95,-99.99,,,0.00,0,weatherlink.com 1.10,2013-03-20 05:29:00,
2013-03-20 01:44:00,63.8,62.0,29.96,WNW,282,0.0,-999.0,95,-99.99,,,0.00,0,weatherlink.com 1.10,2013-03-20 05:44:00,
2013-03-20 01:59:00,63.8,62.0,29.96,WNW,282,0.0,-999.0,95,-99.99,,,0.00,0,weatherlink.com 1.10,2013-03-20 05:59:00,
2013-03-20 02:14:00,63.5,62.0,29.96,West,281,0.0,-999.0,95,-99.99,,,0.00,0,weatherlink.com 1.10,2013-03-20 06:14:00,
2013-03-20 02:29:00,63.2,62.0,29.95,West,281,0.0,-999.0,95,-99.99,,,0.00,0,weatherlink.com 1.10,2013-03-20 06:29:00,
2013-03-20 02:44:00,63.0,62.0,29.94,West,281,0.0,-999.0,95,-99.99,,,0.00,0,weatherlink.com 1.10,2013-03-20 06:44:00,
2013-03-20 02:59:00,62.7,61.0,29.94,WNW,282,0.0,-999.0,95,-99.99,,,0.00,0,weatherlink.com 1.10,2013-03-20 06:59:00,
2013-03-20 03:14:00,62.3,61.0,29.93,West,281,0.0,-999.0,95,-99.99,,,0.00,0,weatherlink.com 1.10,2013-03-20 07:14:00,
2013-03-20 03:29:00,62.0,61.0,29.93,West,281,0.0,-999.0,95,-99.99,,,0.00,0,weatherlink.com 1.10,2013-03-20 07:29:00,
2013-03-20 03:44:00,62.0,61.0,29.93,WNW,282,0.0,-999.0,96,-99.99,,,0.00,0,weatherlink.com 1.10,2013-03-20 07:44:00,
2013-03-20 03:59:00,62.2,61.0,29.93,West,281,0.0,-999.0,96,-99.99,,,0.01,0,weatherlink.com 1.10,2013-03-20 07:59:00,
2013-03-20 04:14:00,62.1,61.0,29.92,West,281,0.0,-999.0,96,-99.99,,,0.01,0,weatherlink.com 1.10,2013-03-20 08:14:00,
2013-03-20 04:29:00,62.0,61.0,29.92,WNW,282,0.0,-999.0,96,-99.99,,,0.01,0,weatherlink.com 1.10,2013-03-20 08:29:00,
2013-03-20 04:44:00,62.5,61.0,29.93,West,281,0.0,-999.0,96,-99.99,,,0.01,0,weatherlink.com 1.10,2013-03-20 08:44:00,
2013-03-20 04:59:00,62.6,62.0,29.93,West,281,0.0,-999.0,96,-99.99,,,0.01,0,weatherlink.com 1.10,2013-03-20 08:59:00,
2013-03-20 05:14:00,62.5,62.0,29.93,West,281,0.0,-999.0,97,-99.99,,,0.01,0,weatherlink.com 1.10,2013-03-20 09:14:00,
2013-03-20 05:29:00,62.1,61.0,29.93,West,281,0.0,-999.0,96,-99.99,,,0.01,0,weatherlink.com 1.10,2013-03-20 09:29:00,
2013-03-20 05:44:00,62.1,61.0,29.93,West,281,0.0,-999.0,97,-99.99,,,0.01,0,weatherlink.com 1.10,2013-03-20 09:44:00,
2013-03-20 05:59:00,61.8,61.0,29.93,WNW,282,0.0,-999.0,96,-99.99,,,0.01,0,weatherlink.com 1.10,2013-03-20 09:59:00,
2013-03-20 06:14:00,61.4,60.0,29.93,West,281,0.0,-999.0,96,-99.99,,,0.01,0,weatherlink.com 1.10,2013-03-20 10:14:00,
2013-03-20 06:29:00,61.3,61.0,29.94,West,281,0.0,-999.0,97,-99.99,,,0.01,0,weatherlink.com 1.10,2013-03-20 10:29:00,
2013-03-20 06:44:00,61.0,60.0,29.94,West,281,0.0,-999.0,96,-99.99,,,0.01,0,weatherlink.com 1.10,2013-03-20 10:44:00,
2013-03-20 06:59:00,60.7,60.0,29.95,West,281,0.0,-999.0,97,-99.99,,,0.01,0,weatherlink.com 1.10,2013-03-20 10:59:00,
2013-03-20 07:14:00,60.6,60.0,29.95,West,281,0.0,-999.0,97,-99.99,,,0.01,0,weatherlink.com 1.10,2013-03-20 11:14:00,
2013-03-20 07:29:00,60.3,59.0,29.95,West,281,0.0,-999.0,96,-99.99,,,0.01,5,weatherlink.com 1.10,2013-03-20 11:29:00,
2013-03-20 07:44:00,60.7,60.0,29.95,West,281,0.0,-999.0,97,-99.99,,,0.01,18,weatherlink.com 1.10,2013-03-20 11:44:00,
2013-03-20 07:59:00,60.7,60.0,29.95,West,281,0.0,-999.0,97,-99.99,,,0.01,46,weatherlink.com 1.10,2013-03-20 11:59:00,
2013-03-20 08:14:00,62.1,61.0,29.96,West,281,0.0,-999.0,97,-99.99,,,0.01,95,weatherlink.com 1.10,2013-03-20 12:14:00,
2013-03-20 08:29:00,64.4,64.0,29.98,West,281,0.0,-999.0,97,-99.99,,,0.01,142,weatherlink.com 1.10,2013-03-20 12:29:00,
2013-03-20 08:44:00,67.0,67.0,29.99,West,281,0.0,-999.0,98,-99.99,,,0.01,211,weatherlink.com 1.10,2013-03-20 12:44:00,
2013-03-20 08:59:00,68.5,68.0,30.00,WNW,283,0.0,-999.0,98,-99.99,,,0.01,243,weatherlink.com 1.10,2013-03-20 12:59:00,
2013-03-20 09:14:00,67.9,67.0,30.00,WNW,291,0.0,-999.0,96,-99.99,,,0.01,234,weatherlink.com 1.10,2013-03-20 13:14:00,
2013-03-20 09:29:00,68.5,67.0,30.00,NW,308,0.0,-999.0,96,-99.99,,,0.01,476,weatherlink.com 1.10,2013-03-20 13:29:00,
2013-03-20 09:44:00,69.3,67.0,29.99,East,98,0.0,-999.0,92,-99.99,,,0.01,123,weatherlink.com 1.10,2013-03-20 13:44:00,
2013-03-20 09:59:00,68.6,65.0,29.98,ESE,113,2.0,-999.0,89,-99.99,,,0.01,171,weatherlink.com 1.10,2013-03-20 13:59:00,
2013-03-20 10:14:00,69.2,65.0,30.00,NW,323,0.0,-999.0,87,-99.99,,,0.01,188,weatherlink.com 1.10,2013-03-20 14:14:00,
2013-03-20 10:29:00,69.8,66.0,30.00,NNE,30,1.0,-999.0,86,-99.99,,,0.01,271,weatherlink.com 1.10,2013-03-20 14:29:00,
2013-03-20 10:44:00,73.0,67.0,30.00,NE,55,0.0,-999.0,81,-99.99,,,0.01,243,weatherlink.com 1.10,2013-03-20 14:44:00,
2013-03-20 10:59:00,73.0,67.0,30.00,NE,41,0.0,-999.0,80,-99.99,,,0.01,188,weatherlink.com 1.10,2013-03-20 14:59:00,
2013-03-20 11:14:00,74.4,67.0,30.00,North,5,0.0,-999.0,78,-99.99,,,0.01,701,weatherlink.com 1.10,2013-03-20 15:14:00,
2013-03-20 11:29:00,74.8,67.0,29.99,NW,315,0.0,-999.0,77,-99.99,,,0.01,884,weatherlink.com 1.10,2013-03-20 15:29:00,
2013-03-20 11:44:00,76.1,67.0,30.00,West,280,0.0,-999.0,74,-99.99,,,0.01,770,weatherlink.com 1.10,2013-03-20 15:44:00,
2013-03-20 11:59:00,77.8,66.0,29.99,WNW,290,1.0,-999.0,68,-99.99,,,0.01,791,weatherlink.com 1.10,2013-03-20 15:59:00,
2013-03-20 12:14:00,79.0,67.0,29.97,WNW,293,0.0,-999.0,66,-99.99,,,0.01,824,weatherlink.com 1.10,2013-03-20 16:14:00,
2013-03-20 12:29:00,79.3,68.0,29.96,West,281,0.0,-999.0,68,-99.99,,,0.01,851,weatherlink.com 1.10,2013-03-20 16:29:00,
2013-03-20 12:44:00,80.3,68.0,29.95,WSW,238,0.0,-999.0,66,-99.99,,,0.01,877,weatherlink.com 1.10,2013-03-20 16:44:00,
2013-03-20 12:59:00,80.9,69.0,29.94,WSW,241,0.0,-999.0,67,-99.99,,,0.01,895,weatherlink.com 1.10,2013-03-20 16:59:00,
2013-03-20 13:14:00,81.8,69.0,29.93,SSW,209,0.0,-999.0,65,-99.99,,,0.01,909,weatherlink.com 1.10,2013-03-20 17:14:00,
2013-03-20 13:29:00,82.4,69.0,29.92,SW,229,1.0,-999.0,63,-99.99,,,0.01,932,weatherlink.com 1.10,2013-03-20 17:29:00,
2013-03-20 13:44:00,81.4,67.0,29.92,WSW,251,0.0,-999.0,62,-99.99,,,0.01,904,weatherlink.com 1.10,2013-03-20 17:44:00,
2013-03-20 13:59:00,80.9,66.0,29.91,WSW,247,6.0,-999.0,61,-99.99,,,0.01,895,weatherlink.com 1.10,2013-03-20 17:59:00,
2013-03-20 14:14:00,81.1,66.0,29.90,SW,234,0.0,-999.0,60,-99.99,,,0.01,895,weatherlink.com 1.10,2013-03-20 18:14:00,
2013-03-20 14:29:00,80.9,66.0,29.91,SW,226,4.0,-999.0,60,-99.99,,,0.01,898,weatherlink.com 1.10,2013-03-20 18:29:00,
2013-03-20 14:44:00,82.0,66.0,29.90,WSW,248,0.0,-999.0,59,-99.99,,,0.01,863,weatherlink.com 1.10,2013-03-20 18:44:00,
2013-03-20 14:59:00,81.3,66.0,29.90,West,277,0.0,-999.0,61,-99.99,,,0.01,882,weatherlink.com 1.10,2013-03-20 18:59:00,
2013-03-20 15:14:00,80.7,66.0,29.91,West,268,0.0,-999.0,62,-99.99,,,0.01,555,weatherlink.com 1.10,2013-03-20 19:14:00,
2013-03-20 15:29:00,78.3,67.0,29.91,West,269,0.0,-999.0,69,-99.99,,,0.01,745,weatherlink.com 1.10,2013-03-20 19:29:00,
2013-03-20 15:44:00,79.2,66.0,29.89,NW,304,1.0,-999.0,64,-99.99,,,0.01,559,weatherlink.com 1.10,2013-03-20 19:44:00,
2013-03-20 15:59:00,78.5,68.0,29.89,WNW,285,5.0,-999.0,69,-99.99,,,0.01,884,weatherlink.com 1.10,2013-03-20 19:59:00,
2013-03-20 16:14:00,77.5,66.0,29.89,NW,309,0.0,-999.0,67,-99.99,,,0.01,329,weatherlink.com 1.10,2013-03-20 20:14:00,
2013-03-20 16:29:00,74.7,65.0,29.88,NW,312,1.0,-999.0,72,-99.99,,,0.01,230,weatherlink.com 1.10,2013-03-20 20:29:00,
2013-03-20 16:44:00,74.6,66.0,29.88,West,279,0.0,-999.0,74,-99.99,,,0.01,461,weatherlink.com 1.10,2013-03-20 20:44:00,
2013-03-20 16:59:00,75.5,65.0,29.86,West,281,0.0,-999.0,70,-99.99,,,0.01,434,weatherlink.com 1.10,2013-03-20 20:59:00,
2013-03-20 17:14:00,75.1,65.0,29.86,SW,233,1.0,-999.0,70,-99.99,,,0.01,216,weatherlink.com 1.10,2013-03-20 21:14:00,
2013-03-20 17:29:00,74.2,64.0,29.85,SW,222,0.0,-999.0,71,-99.99,,,0.01,178,weatherlink.com 1.10,2013-03-20 21:29:00,
2013-03-20 17:44:00,73.3,64.0,29.85,NW,306,0.0,-999.0,73,-99.99,,,0.01,86,weatherlink.com 1.10,2013-03-20 21:44:00,
2013-03-20 17:59:00,72.5,64.0,29.86,WSW,238,1.0,-999.0,74,-99.99,,,0.01,70,weatherlink.com 1.10,2013-03-20 21:59:00,
2013-03-20 18:14:00,72.2,64.0,29.86,WSW,242,0.0,-999.0,75,-99.99,,,0.01,54,weatherlink.com 1.10,2013-03-20 22:14:00,
2013-03-20 18:29:00,71.8,64.0,29.87,SW,236,0.0,-999.0,77,-99.99,,,0.01,51,weatherlink.com 1.10,2013-03-20 22:29:00,
2013-03-20 18:44:00,71.6,65.0,29.88,WSW,258,0.0,-999.0,79,-99.99,,,0.01,39,weatherlink.com 1.10,2013-03-20 22:44:00,
2013-03-20 18:59:00,71.2,64.0,29.89,West,265,0.0,-999.0,78,-99.99,,,0.01,18,weatherlink.com 1.10,2013-03-20 22:59:00,
2013-03-20 19:14:00,71.0,63.0,29.88,WNW,292,0.0,-999.0,77,-99.99,,,0.01,9,weatherlink.com 1.10,2013-03-20 23:14:00,
2013-03-20 19:29:00,70.9,63.0,29.89,WNW,288,1.0,-999.0,76,-99.99,,,0.01,0,weatherlink.com 1.10,2013-03-20 23:29:00,
2013-03-20 19:44:00,71.2,61.0,29.89,West,277,0.0,-999.0,70,-99.99,,,0.01,0,weatherlink.com 1.10,2013-03-20 23:44:00,
2013-03-20 19:59:00,71.2,62.0,29.90,WNW,288,0.0,-999.0,72,-99.99,,,0.01,0,weatherlink.com 1.10,2013-03-20 23:59:00,
2013-03-20 20:14:00,71.0,62.0,29.90,WNW,288,0.0,-999.0,73,-99.99,,,0.01,0,weatherlink.com 1.10,2013-03-21 00:14:00,
2013-03-20 20:29:00,70.8,64.0,29.95,West,274,1.0,-999.0,78,-99.99,,,0.01,0,weatherlink.com 1.10,2013-03-21 00:29:00,
2013-03-20 20:44:00,69.7,65.0,29.99,West,274,2.0,-999.0,84,-99.99,,,0.02,0,weatherlink.com 1.10,2013-03-21 00:44:00,
2013-03-20 20:59:00,67.8,64.0,29.99,WNW,289,3.0,-999.0,86,-99.99,,,0.03,0,weatherlink.com 1.10,2013-03-21 00:59:00,
2013-03-20 21:14:00,67.0,63.0,29.98,NNW,331,0.0,-999.0,87,-99.99,,,0.05,0,weatherlink.com 1.10,2013-03-21 01:14:00,
2013-03-20 21:29:00,66.8,64.0,29.97,NW,317,2.0,-999.0,91,-99.99,,,0.05,0,weatherlink.com 1.10,2013-03-21 01:29:00,
2013-03-20 21:44:00,66.4,64.0,29.95,NW,310,0.0,-999.0,91,-99.99,,,0.06,0,weatherlink.com 1.10,2013-03-21 01:44:00,
2013-03-20 21:59:00,66.1,64.0,29.92,NW,304,0.0,-999.0,92,-99.99,,,0.07,0,weatherlink.com 1.10,2013-03-21 01:59:00,
2013-03-20 22:14:00,65.9,64.0,29.93,NW,304,0.0,-999.0,93,-99.99,,,0.07,0,weatherlink.com 1.10,2013-03-21 02:14:00,
2013-03-20 22:29:00,66.0,64.0,29.92,West,263,0.0,-999.0,93,-99.99,,,0.07,0,weatherlink.com 1.10,2013-03-21 02:29:00,
2013-03-20 22:44:00,65.9,64.0,29.92,West,262,1.0,-999.0,93,-99.99,,,0.07,0,weatherlink.com 1.10,2013-03-21 02:44:00,
2013-03-20 22:59:00,65.8,64.0,29.91,West,262,0.0,-999.0,93,-99.99,,,0.07,0,weatherlink.com 1.10,2013-03-21 02:59:00,
2013-03-20 23:14:00,66.1,64.0,29.91,WNW,283,0.0,-999.0,93,-99.99,,,0.07,0,weatherlink.com 1.10,2013-03-21 03:14:00,
2013-03-20 23:29:00,66.0,64.0,29.91,WNW,294,0.0,-999.0,93,-99.99,,,0.07,0,weatherlink.com 1.10,2013-03-21 03:29:00,
2013-03-20 23:44:00,65.8,64.0,29.90,WNW,288,2.0,-999.0,93,-99.99,,,0.07,0,weatherlink.com 1.10,2013-03-21 03:44:00,
2013-03-20 23:59:00,65.6,64.0,29.89,WNW,288,0.0,-999.0,93,-99.99,,,0.07,0,weatherlink.com 1.10,2013-03-21 03:59:00,